Rio Negrinho, Brazil
Current Conditions -  °F | °C
As of 7:00 AM on Friday 24 Oct 2014 (Local Time) from SBJV Reporting Station
Broken Clouds Broken Clouds  
Wind Chill: 68°   Ceiling: 3000
Heat Index: 68°   Visibility: 6mi
Dew Point: 66°   Wind: 2mph
Humidity: 94%   Direction: 250°WSW
Pressure: 30"   Gusts: NA
Location:  26.25°S, 49.52°W
Report Text: SBJV 240900Z 25002KT 9999 FEW015 BKN030 20/19 Q1016
Loading
Personal Weather Stations






























Interactive Weather Map
Tropical Storm Tracking
New forecast layout! Learn more

10-Day Weather Forecast

Advertisements
Track Severe Weather on mobile